createdAt,value
2023-01-30T00:01:31.245Z,10.50
2023-01-30T00:03:58.922Z,11.10
2023-01-30T00:06:28.545Z,11.70
2023-01-30T00:08:56.092Z,11.20
2023-01-30T00:11:24.255Z,10.57
2023-01-30T00:13:52.728Z,13.73
2023-01-30T00:16:20.257Z,11.70
2023-01-30T00:18:48.135Z,12.60
2023-01-30T00:21:16.354Z,12.20
2023-01-30T00:23:46.680Z,12.33
2023-01-30T00:26:14.648Z,12.20
2023-01-30T00:28:43.092Z,11.50
2023-01-30T00:31:10.609Z,11.77
2023-01-30T00:33:39.084Z,10.90
2023-01-30T00:36:07.362Z,11.20
2023-01-30T00:38:36.211Z,11.30
2023-01-30T00:41:06.015Z,13.90
2023-01-30T00:43:50.955Z,9.87
2023-01-30T00:46:43.672Z,13.20
2023-01-30T00:49:11.706Z,11.40
2023-01-30T00:51:39.252Z,11.77
2023-01-30T00:54:07.023Z,13.13
2023-01-30T00:56:36.240Z,12.13
2023-01-30T00:59:04.341Z,12.17
2023-01-30T01:01:31.850Z,12.03
2023-01-30T01:03:59.377Z,13.83
2023-01-30T01:06:27.948Z,14.17
2023-01-30T01:08:55.825Z,12.03
2023-01-30T01:11:26.662Z,14.50
2023-01-30T01:13:57.813Z,12.60
2023-01-30T01:16:26.673Z,13.63
2023-01-30T01:18:55.009Z,11.60
2023-01-30T01:21:23.102Z,12.90
2023-01-30T01:23:51.639Z,12.00
2023-01-30T01:26:19.317Z,14.20
2023-01-30T01:28:47.510Z,15.33
2023-01-30T01:31:18.169Z,12.93
2023-01-30T01:33:45.880Z,13.40
2023-01-30T01:36:29.449Z,14.53
2023-01-30T01:39:03.401Z,15.50
2023-01-30T01:41:30.154Z,12.63
2023-01-30T01:44:01.885Z,13.23
2023-01-30T01:46:33.986Z,14.67
2023-01-30T01:49:06.599Z,14.13
2023-01-30T01:51:38.659Z,10.77
2023-01-30T01:54:13.579Z,12.10
2023-01-30T01:56:47.068Z,11.80
2023-01-30T01:59:20.589Z,13.50
2023-01-30T02:01:51.932Z,11.80
2023-01-30T02:04:46.118Z,11.57
2023-01-30T02:07:15.529Z,10.33
2023-01-30T02:09:43.378Z,11.00
2023-01-30T02:12:12.475Z,12.07
2023-01-30T02:14:41.287Z,11.37
2023-01-30T02:17:10.592Z,13.10
2023-01-30T02:19:50.231Z,14.17
2023-01-30T02:22:45.279Z,12.70
2023-01-30T02:25:50.037Z,12.90
2023-01-30T02:28:49.866Z,13.00
2023-01-30T02:31:33.818Z,12.37
2023-01-30T02:34:26.574Z,13.67
2023-01-30T02:37:03.244Z,13.37
2023-01-30T02:39:39.800Z,14.90
2023-01-30T02:42:16.575Z,13.20
2023-01-30T02:44:53.675Z,11.67
2023-01-30T02:47:29.128Z,13.20
2023-01-30T02:50:02.077Z,13.77
2023-01-30T02:52:31.918Z,14.77
2023-01-30T02:54:59.471Z,12.10
2023-01-30T02:57:27.661Z,14.33
2023-01-30T03:00:04.562Z,14.00
2023-01-30T03:02:52.837Z,13.37
2023-01-30T03:05:32.603Z,12.90
2023-01-30T03:08:14.125Z,13.90
2023-01-30T03:10:50.088Z,13.43
2023-01-30T03:13:27.247Z,12.77
2023-01-30T03:16:00.527Z,12.20
2023-01-30T03:18:29.622Z,12.87
2023-01-30T03:20:57.713Z,13.40
2023-01-30T03:23:25.207Z,12.47
2023-01-30T03:25:52.666Z,12.60
2023-01-30T03:28:22.020Z,12.37
2023-01-30T03:30:50.611Z,13.83
2023-01-30T03:33:18.288Z,13.77
2023-01-30T03:35:51.071Z,14.27
2023-01-30T03:38:19.129Z,13.63
2023-01-30T03:40:47.813Z,13.00
2023-01-30T03:43:15.819Z,12.60
2023-01-30T03:45:43.276Z,9.80
2023-01-30T03:48:10.884Z,12.13
2023-01-30T03:50:38.412Z,11.53
2023-01-30T03:53:07.998Z,12.50
2023-01-30T03:55:35.457Z,11.43
2023-01-30T03:58:03.158Z,11.27
2023-01-30T04:00:33.983Z,12.53
2023-01-30T04:03:02.496Z,12.53
2023-01-30T04:05:30.353Z,11.30
2023-01-30T04:08:03.545Z,12.43
2023-01-30T04:10:32.634Z,11.83
2023-01-30T04:13:00.227Z,11.73
2023-01-30T04:15:27.839Z,12.90
2023-01-30T04:18:24.330Z,11.10
2023-01-30T04:21:00.146Z,8.30
2023-01-30T04:23:35.282Z,10.00
2023-01-30T04:26:05.822Z,10.57
2023-01-30T04:28:37.883Z,9.90
2023-01-30T04:31:05.917Z,9.53
2023-01-30T04:33:45.206Z,10.97
2023-01-30T04:36:14.140Z,10.57
2023-01-30T04:38:42.784Z,9.53
2023-01-30T04:41:11.603Z,7.63
2023-01-30T04:43:42.163Z,11.93
2023-01-30T04:46:18.799Z,12.00
2023-01-30T04:48:46.405Z,9.43
2023-01-30T04:51:13.918Z,9.43
2023-01-30T04:53:41.953Z,8.60
2023-01-30T04:56:11.072Z,8.40
2023-01-30T04:58:38.573Z,9.70
2023-01-30T05:01:15.326Z,8.60
2023-01-30T05:03:43.851Z,8.20
2023-01-30T05:06:11.313Z,7.20
2023-01-30T05:08:39.033Z,9.20
2023-01-30T05:11:07.144Z,7.50
2023-01-30T05:13:36.068Z,6.87
2023-01-30T05:16:03.634Z,6.33
2023-01-30T05:18:31.604Z,7.93
2023-01-30T05:21:04.759Z,8.10
2023-01-30T05:23:32.542Z,8.20
2023-01-30T05:26:00.141Z,7.80
2023-01-30T05:28:27.727Z,8.10
2023-01-30T05:30:56.682Z,8.23
2023-01-30T05:33:24.714Z,7.60
2023-01-30T05:35:52.225Z,7.93
2023-01-30T05:38:19.707Z,7.30
2023-01-30T05:40:47.177Z,7.10
2023-01-30T05:43:14.814Z,8.73
2023-01-30T05:45:42.363Z,8.47
2023-01-30T05:48:11.302Z,7.57
2023-01-30T05:50:38.757Z,7.17
2023-01-30T05:53:06.906Z,8.17
2023-01-30T05:55:34.404Z,6.57
2023-01-30T05:58:01.917Z,6.90
2023-01-30T06:00:29.895Z,6.50
2023-01-30T06:02:57.473Z,6.73
2023-01-30T06:05:26.278Z,6.30
2023-01-30T06:07:53.738Z,6.00
2023-01-30T06:10:21.217Z,6.33
2023-01-30T06:12:48.689Z,4.80
2023-01-30T06:15:16.652Z,3.17
2023-01-30T06:17:44.447Z,5.13
2023-01-30T06:20:13.414Z,5.73
2023-01-30T06:22:42.193Z,5.30
2023-01-30T06:25:10.232Z,5.30
2023-01-30T06:27:37.852Z,4.73
2023-01-30T06:30:06.269Z,4.73
2023-01-30T06:32:33.748Z,4.30
2023-01-30T06:35:01.188Z,4.47
2023-01-30T06:37:28.732Z,4.33
2023-01-30T06:39:57.640Z,3.63
2023-01-30T06:42:25.095Z,4.97
2023-01-30T06:44:52.576Z,3.67
2023-01-30T06:47:20.065Z,3.53
2023-01-30T06:49:49.100Z,3.60
2023-01-30T06:52:16.554Z,4.50
2023-01-30T06:54:44.167Z,2.43
2023-01-30T06:57:13.488Z,2.23
2023-01-30T06:59:40.930Z,3.40
2023-01-30T07:02:08.403Z,3.47
2023-01-30T07:04:35.969Z,3.70
2023-01-30T07:07:03.434Z,3.17
2023-01-30T07:09:31.007Z,3.20
2023-01-30T07:11:58.477Z,2.83
2023-01-30T07:14:27.284Z,3.53
2023-01-30T07:16:54.747Z,3.00
2023-01-30T07:19:22.311Z,3.03
2023-01-30T07:21:49.784Z,3.30
2023-01-30T07:24:17.311Z,2.30
2023-01-30T07:26:44.843Z,2.23
2023-01-30T07:29:12.333Z,2.73
2023-01-30T07:31:41.184Z,2.23
2023-01-30T07:34:08.724Z,2.80
2023-01-30T07:36:37.670Z,2.60
2023-01-30T07:39:05.156Z,3.13
2023-01-30T07:41:32.840Z,2.20
2023-01-30T07:44:01.431Z,2.50
2023-01-30T07:46:34.629Z,2.37
2023-01-30T07:49:04.023Z,2.03
2023-01-30T07:51:31.627Z,2.53
2023-01-30T07:54:02.078Z,2.83
2023-01-30T07:56:29.566Z,3.30
2023-01-30T07:58:57.824Z,3.83
2023-01-30T08:01:25.449Z,2.00
2023-01-30T08:03:55.866Z,2.30
2023-01-30T08:06:24.684Z,2.03
2023-01-30T08:08:52.177Z,2.63
2023-01-30T08:11:19.671Z,2.90
2023-01-30T08:13:47.445Z,3.00
2023-01-30T08:16:15.097Z,1.83
2023-01-30T08:18:42.828Z,2.40
2023-01-30T08:21:13.791Z,2.50
2023-01-30T08:23:42.576Z,2.13
2023-01-30T08:26:10.142Z,3.10
2023-01-30T08:28:37.708Z,2.40
2023-01-30T08:31:10.878Z,2.27
2023-01-30T08:33:38.425Z,3.00
2023-01-30T08:36:06.662Z,3.80
2023-01-30T08:38:34.205Z,2.40
2023-01-30T08:41:06.622Z,3.50
2023-01-30T08:43:34.292Z,2.33
2023-01-30T08:46:01.985Z,2.80
2023-01-30T08:48:36.713Z,2.47
2023-01-30T08:51:07.975Z,2.20
2023-01-30T08:53:35.499Z,2.20
2023-01-30T08:56:04.710Z,3.00
2023-01-30T08:58:32.149Z,2.10
2023-01-30T09:00:59.577Z,2.03
2023-01-30T09:03:27.287Z,4.43
2023-01-30T09:05:55.854Z,6.53
2023-01-30T09:08:23.564Z,2.40
2023-01-30T09:10:51.025Z,3.20
2023-01-30T09:13:19.937Z,2.33
2023-01-30T09:15:47.511Z,2.43
2023-01-30T09:18:15.007Z,2.37
2023-01-30T09:20:42.487Z,2.93
2023-01-30T09:23:09.999Z,3.23
2023-01-30T09:25:37.694Z,2.73
2023-01-30T09:28:05.586Z,2.90
2023-01-30T09:30:34.616Z,1.90
2023-01-30T09:33:02.252Z,2.87
2023-01-30T09:35:29.897Z,2.37
2023-01-30T09:37:58.339Z,2.33
2023-01-30T09:40:28.476Z,1.97
2023-01-30T09:43:19.964Z,3.07
2023-01-30T09:45:59.977Z,2.77
2023-01-30T09:48:33.042Z,2.33
2023-01-30T09:51:15.053Z,3.37
2023-01-30T09:54:04.363Z,3.23
2023-01-30T09:56:32.300Z,2.63
2023-01-30T09:59:02.867Z,2.50
2023-01-30T10:01:45.848Z,2.13
2023-01-30T10:04:17.570Z,3.03
2023-01-30T10:06:54.863Z,2.60
2023-01-30T10:09:34.207Z,1.93
2023-01-30T10:12:15.785Z,2.20
2023-01-30T10:15:00.161Z,2.53
2023-01-30T10:17:47.733Z,2.40
2023-01-30T10:20:26.626Z,3.63
2023-01-30T10:23:05.554Z,2.20
2023-01-30T10:25:39.309Z,2.23
2023-01-30T10:28:13.173Z,2.60
2023-01-30T10:30:41.624Z,2.63
2023-01-30T10:33:19.206Z,5.73
2023-01-30T10:35:56.843Z,3.03
2023-01-30T10:38:33.377Z,2.47
2023-01-30T10:41:06.561Z,2.03
2023-01-30T10:43:40.690Z,2.20
2023-01-30T10:46:22.781Z,2.40
2023-01-30T10:48:59.005Z,3.80
2023-01-30T10:51:38.118Z,3.20
2023-01-30T10:54:14.671Z,2.30
2023-01-30T10:56:48.489Z,4.20
2023-01-30T10:59:35.150Z,4.50
2023-01-30T11:02:14.027Z,2.33
2023-01-30T11:04:48.862Z,3.37
2023-01-30T11:07:16.826Z,1.83
2023-01-30T11:09:46.431Z,2.23
2023-01-30T11:12:14.981Z,2.43
2023-01-30T11:14:58.489Z,2.50
2023-01-30T11:17:36.204Z,1.97
2023-01-30T11:20:13.563Z,2.77
2023-01-30T11:22:48.953Z,2.00
2023-01-30T11:25:19.776Z,2.10
2023-01-30T11:27:54.692Z,1.97
2023-01-30T11:30:23.358Z,2.33
2023-01-30T11:32:51.204Z,3.20
2023-01-30T11:35:27.932Z,3.10
2023-01-30T11:37:55.663Z,2.57
2023-01-30T11:40:27.317Z,2.00
2023-01-30T11:43:02.853Z,1.93
2023-01-30T11:45:34.895Z,2.60
2023-01-30T11:48:06.842Z,3.30
2023-01-30T11:50:47.251Z,2.13
2023-01-30T11:53:29.062Z,2.20
2023-01-30T11:56:05.316Z,2.70
2023-01-30T11:58:37.456Z,3.20
2023-01-30T12:01:06.096Z,3.70
2023-01-30T12:03:34.450Z,3.10
2023-01-30T12:06:03.964Z,3.37
2023-01-30T12:08:42.556Z,1.90
2023-01-30T12:11:26.732Z,2.60
2023-01-30T12:13:56.165Z,1.60
2023-01-30T12:16:31.197Z,2.00
2023-01-30T12:19:06.581Z,1.17
2023-01-30T12:21:46.737Z,1.30
2023-01-30T12:24:22.824Z,1.53
2023-01-30T12:26:56.047Z,1.30
2023-01-30T12:29:29.954Z,1.23
2023-01-30T12:32:06.352Z,1.63
2023-01-30T12:34:33.899Z,1.97
2023-01-30T12:37:15.907Z,1.50
2023-01-30T12:39:53.819Z,2.10
2023-01-30T12:42:57.507Z,1.67
2023-01-30T12:45:27.232Z,1.37
2023-01-30T12:48:27.098Z,1.07
2023-01-30T12:51:11.337Z,1.40
2023-01-30T12:53:52.705Z,2.23
2023-01-30T12:56:39.972Z,1.80
2023-01-30T12:59:15.976Z,2.07
2023-01-30T13:01:54.878Z,1.80
2023-01-30T13:04:56.539Z,1.70
2023-01-30T13:07:39.673Z,2.07
2023-01-30T13:10:17.762Z,1.63
2023-01-30T13:12:58.927Z,2.20
2023-01-30T13:15:34.532Z,1.37
2023-01-30T13:18:10.835Z,2.20
2023-01-30T13:20:51.232Z,1.33
2023-01-30T13:23:21.731Z,2.30
2023-01-30T13:26:00.958Z,2.00
2023-01-30T13:28:32.777Z,2.00
2023-01-30T13:31:02.750Z,1.90
2023-01-30T13:33:34.298Z,1.67
2023-01-30T13:36:13.078Z,2.10
2023-01-30T13:38:53.663Z,2.00
2023-01-30T13:41:38.238Z,2.03
2023-01-30T13:44:18.104Z,2.23
2023-01-30T13:46:46.860Z,2.83
2023-01-30T13:49:23.844Z,1.60
2023-01-30T13:51:55.003Z,2.10
2023-01-30T13:54:45.934Z,2.50
2023-01-30T13:57:26.042Z,2.83
2023-01-30T14:00:10.625Z,1.57
2023-01-30T14:03:20.855Z,1.50
2023-01-30T14:06:05.035Z,2.60
2023-01-30T14:08:40.116Z,1.97
2023-01-30T14:11:36.781Z,2.10
2023-01-30T14:14:07.622Z,4.00
2023-01-30T14:16:44.333Z,2.43
2023-01-30T14:19:34.894Z,2.67
2023-01-30T14:22:17.750Z,1.70
2023-01-30T14:24:45.310Z,1.93
2023-01-30T14:27:31.866Z,2.50
2023-01-30T14:29:59.432Z,2.97
2023-01-30T14:32:54.598Z,2.40
2023-01-30T14:35:25.308Z,1.80
2023-01-30T14:38:16.372Z,2.27
2023-01-30T14:41:05.479Z,1.70
2023-01-30T14:43:38.752Z,1.37
2023-01-30T14:46:09.054Z,2.47
2023-01-30T14:48:44.436Z,2.00
2023-01-30T14:51:24.796Z,2.40
2023-01-30T14:53:56.658Z,2.70
2023-01-30T14:56:39.249Z,2.03
2023-01-30T14:59:10.839Z,3.40
2023-01-30T15:01:57.367Z,1.67
2023-01-30T15:04:27.052Z,2.00
2023-01-30T15:06:55.656Z,2.30
2023-01-30T15:09:31.109Z,2.37
2023-01-30T15:12:16.875Z,3.30
2023-01-30T15:14:59.823Z,2.70
2023-01-30T15:17:36.731Z,2.03
2023-01-30T15:20:18.385Z,3.00
2023-01-30T15:23:04.037Z,1.47
2023-01-30T15:25:47.741Z,2.40
2023-01-30T15:28:30.606Z,2.17
2023-01-30T15:31:09.569Z,2.53
2023-01-30T15:33:44.933Z,1.90
2023-01-30T15:36:25.812Z,3.47
2023-01-30T15:39:04.327Z,2.47
2023-01-30T15:41:41.125Z,2.50
2023-01-30T15:44:32.971Z,2.80
2023-01-30T15:47:16.159Z,2.30
2023-01-30T15:50:10.318Z,2.60
2023-01-30T15:52:44.784Z,1.53
2023-01-30T15:55:19.031Z,3.23
2023-01-30T15:57:51.919Z,2.73
2023-01-30T16:00:27.465Z,2.20
2023-01-30T16:02:56.457Z,2.93
2023-01-30T16:05:25.991Z,2.37
2023-01-30T16:07:55.255Z,2.10
2023-01-30T16:10:24.968Z,2.43
2023-01-30T16:12:56.179Z,2.30
2023-01-30T16:15:31.878Z,1.67
2023-01-30T16:18:05.537Z,2.03
2023-01-30T16:20:51.500Z,3.03
2023-01-30T16:23:31.076Z,1.83
2023-01-30T16:26:00.681Z,2.50
2023-01-30T16:28:31.929Z,2.90
2023-01-30T16:31:01.337Z,2.40
2023-01-30T16:33:35.690Z,2.53
2023-01-30T16:36:04.520Z,3.17
2023-01-30T16:38:42.666Z,1.90
2023-01-30T16:41:29.239Z,1.93
2023-01-30T16:44:18.180Z,2.10
2023-01-30T16:46:48.836Z,2.17
2023-01-30T16:49:21.217Z,2.30
2023-01-30T16:51:50.940Z,2.00
2023-01-30T16:54:22.195Z,2.17
2023-01-30T16:56:54.423Z,1.57
2023-01-30T16:59:30.233Z,1.77
2023-01-30T17:01:59.195Z,1.90
2023-01-30T17:04:30.408Z,1.47
2023-01-30T17:07:00.775Z,1.70
2023-01-30T17:09:44.443Z,2.13
2023-01-30T17:12:37.058Z,2.00
2023-01-30T17:15:28.602Z,2.17
2023-01-30T17:17:56.213Z,1.50
2023-01-30T17:20:24.541Z,1.90
2023-01-30T17:22:53.757Z,2.00
2023-01-30T17:25:30.636Z,2.10
2023-01-30T17:27:58.797Z,1.60
2023-01-30T17:30:27.638Z,2.10
2023-01-30T17:32:55.315Z,1.30
2023-01-30T17:35:23.344Z,2.00
2023-01-30T17:37:59.526Z,2.80
2023-01-30T17:40:34.495Z,2.97
2023-01-30T17:43:01.989Z,3.00
2023-01-30T17:45:31.084Z,2.50
2023-01-30T17:47:58.645Z,1.80
2023-01-30T17:50:28.299Z,2.57
2023-01-30T17:52:55.906Z,1.77
2023-01-30T17:55:23.554Z,2.30
2023-01-30T17:57:51.086Z,2.20
2023-01-30T18:00:21.468Z,2.20
2023-01-30T18:02:50.673Z,3.07
2023-01-30T18:05:18.292Z,2.53
2023-01-30T18:07:45.890Z,3.00
2023-01-30T18:10:16.767Z,3.63
2023-01-30T18:12:45.346Z,2.63
2023-01-30T18:15:15.434Z,2.50
2023-01-30T18:17:47.112Z,4.07
2023-01-30T18:20:18.819Z,2.10
2023-01-30T18:22:47.332Z,2.60
2023-01-30T18:25:16.133Z,2.63
2023-01-30T18:27:45.102Z,1.90
2023-01-30T18:30:16.872Z,2.13
2023-01-30T18:32:52.396Z,2.13
2023-01-30T18:35:22.685Z,2.80
2023-01-30T18:37:50.788Z,2.30
2023-01-30T18:40:19.335Z,2.27
2023-01-30T18:42:47.301Z,2.30
2023-01-30T18:45:15.074Z,3.93
2023-01-30T18:47:42.543Z,2.07
2023-01-30T18:50:10.865Z,2.70
2023-01-30T18:52:39.681Z,1.73
2023-01-30T18:55:07.686Z,2.13
2023-01-30T18:57:37.961Z,2.80
2023-01-30T19:00:06.541Z,2.70
2023-01-30T19:02:35.777Z,3.87
2023-01-30T19:05:03.408Z,2.07
2023-01-30T19:07:30.983Z,3.30
2023-01-30T19:09:59.851Z,2.10
2023-01-30T19:12:45.060Z,2.30
2023-01-30T19:15:12.567Z,3.03
2023-01-30T19:17:40.884Z,2.70
2023-01-30T19:20:11.059Z,3.37
2023-01-30T19:22:38.692Z,3.30
2023-01-30T19:25:08.854Z,3.10
2023-01-30T19:27:37.420Z,3.00
2023-01-30T19:30:06.255Z,3.30
2023-01-30T19:32:33.736Z,2.60
2023-01-30T19:35:01.261Z,3.33
2023-01-30T19:37:28.818Z,3.00
2023-01-30T19:39:56.528Z,3.87
2023-01-30T19:42:25.364Z,2.97
2023-01-30T19:44:52.979Z,2.50
2023-01-30T19:47:21.971Z,2.33
2023-01-30T19:49:49.935Z,3.50
2023-01-30T19:52:17.823Z,2.27
2023-01-30T19:54:46.958Z,2.40
2023-01-30T19:57:14.487Z,5.93
2023-01-30T19:59:44.811Z,3.50
2023-01-30T20:02:13.910Z,2.83
2023-01-30T20:04:41.560Z,3.17
2023-01-30T20:07:09.160Z,3.07
2023-01-30T20:09:36.641Z,5.50
2023-01-30T20:12:04.463Z,1.97
2023-01-30T20:14:34.654Z,3.67
2023-01-30T20:21:45.403Z,2.80
2023-01-30T20:24:15.364Z,2.60
2023-01-30T20:26:46.542Z,3.40
2023-01-30T20:29:18.445Z,3.33
2023-01-30T20:31:46.557Z,2.63
2023-01-30T20:34:15.560Z,2.50
2023-01-30T20:36:43.980Z,2.90
2023-01-30T20:39:12.241Z,3.23
2023-01-30T20:41:41.461Z,2.37
2023-01-30T20:44:12.100Z,3.43
2023-01-30T20:46:44.592Z,2.13
2023-01-30T20:49:14.886Z,2.50
2023-01-30T20:51:42.938Z,2.90
2023-01-30T20:54:12.808Z,3.03
2023-01-30T20:56:43.657Z,3.10
2023-01-30T20:59:13.295Z,2.40
2023-01-30T21:01:40.846Z,2.47
2023-01-30T21:04:10.671Z,3.30
2023-01-30T21:06:44.794Z,3.23
2023-01-30T21:09:15.415Z,2.40
2023-01-30T21:11:44.996Z,3.10
2023-01-30T21:14:12.819Z,2.30
2023-01-30T21:16:41.019Z,2.17
2023-01-30T21:19:14.319Z,2.53
2023-01-30T21:21:44.696Z,2.57
2023-01-30T21:24:15.202Z,3.00
2023-01-30T21:26:47.069Z,2.10
2023-01-30T21:29:15.958Z,3.90
2023-01-30T21:31:44.794Z,2.70
2023-01-30T21:34:13.361Z,2.47
2023-01-30T21:36:41.736Z,3.70
2023-01-30T21:39:31.932Z,2.07
2023-01-30T21:42:22.202Z,3.17
2023-01-30T21:44:57.233Z,3.53
2023-01-30T21:47:28.927Z,2.57
2023-01-30T21:49:56.504Z,2.10
2023-01-30T21:52:24.018Z,3.23
2023-01-30T21:54:51.509Z,2.60
2023-01-30T21:57:20.552Z,2.20
2023-01-30T21:59:48.022Z,2.57
2023-01-30T22:02:15.542Z,2.73
2023-01-30T22:04:43.039Z,1.77
2023-01-30T22:07:10.495Z,2.40
2023-01-30T22:09:38.023Z,2.57
2023-01-30T22:12:05.898Z,2.00
2023-01-30T22:14:36.375Z,3.13
2023-01-30T22:17:03.976Z,2.73
2023-01-30T22:19:35.231Z,2.40
2023-01-30T22:22:03.429Z,2.17
2023-01-30T22:24:31.536Z,2.13
2023-01-30T22:26:59.281Z,2.23
2023-01-30T22:29:28.938Z,3.50
2023-01-30T22:31:57.859Z,1.70
2023-01-30T22:34:25.479Z,4.13
2023-01-30T22:36:53.108Z,1.97
2023-01-30T22:39:20.732Z,3.00
2023-01-30T22:41:48.251Z,2.43
2023-01-30T22:44:15.762Z,2.20
2023-01-30T22:46:43.395Z,1.70
2023-01-30T22:49:12.279Z,1.40
2023-01-30T22:51:43.050Z,1.20
2023-01-30T22:54:15.617Z,1.30
2023-01-30T22:56:44.704Z,1.30
2023-01-30T22:59:13.029Z,1.97
2023-01-30T23:01:42.290Z,1.50
2023-01-30T23:04:13.759Z,1.43
2023-01-30T23:06:42.383Z,1.53
2023-01-30T23:09:11.999Z,1.67
2023-01-30T23:11:41.417Z,1.20
2023-01-30T23:14:10.881Z,1.63
2023-01-30T23:16:40.884Z,2.13
2023-01-30T23:19:08.452Z,2.10
2023-01-30T23:21:39.511Z,2.47
2023-01-30T23:24:09.449Z,1.77
2023-01-30T23:26:39.237Z,2.03
2023-01-30T23:29:09.265Z,2.47
2023-01-30T23:31:37.999Z,2.27
2023-01-30T23:34:07.934Z,2.40
2023-01-30T23:36:36.994Z,2.27
2023-01-30T23:39:05.392Z,2.17
2023-01-30T23:41:35.334Z,2.20
2023-01-30T23:44:03.514Z,2.30
2023-01-30T23:46:33.216Z,2.30
2023-01-30T23:49:03.041Z,3.10
2023-01-30T23:51:32.752Z,1.83
2023-01-30T23:54:02.395Z,2.40
2023-01-30T23:56:32.138Z,1.60
2023-01-30T23:58:59.924Z,2.60
